Time;durP1;ratioP1;P1;durP2;ratioP2;P2;SDS_P1;SDS_P2;PMS_P1;PMS_P2;Temp;Humidity;BMP_temperature;BMP_pressure;BME280_temperature;BME280_humidity;BME280_pressure;Samples;Min_cycle;Max_cycle;Signal;HPM_P1;HPM_P2
2021/01/13 00:13:12;;;;;;;34.05;16.95;;;;;;;0.48;100.00;98894.11;10897498;80;21083;-78
2021/01/13 00:28:17;;;;;;;48.75;20.20;;;;;;;0.57;100.00;98900.38;10911458;81;21079;-77
2021/01/13 00:43:21;;;;;;;47.03;20.90;;;;;;;0.62;100.00;98915.93;10878494;81;21103;-78
2021/01/13 00:58:27;;;;;;;35.70;15.58;;;;;;;0.27;100.00;98933.80;10884541;80;21044;-77
2021/01/13 01:13:31;;;;;;;38.20;13.80;;;;;;;0.32;100.00;98960.12;10918207;80;21115;-77
2021/01/13 01:28:36;;;;;;;18.42;9.05;;;;;;;-0.06;100.00;98973.31;10880697;81;21084;-77
2021/01/13 01:43:44;;;;;;;18.60;9.13;;;;;;;-0.24;100.00;98993.83;10879858;81;21088;-77
2021/01/13 01:58:53;;;;;;;15.43;7.75;;;;;;;-0.47;100.00;99012.05;10877583;81;21056;-77
2021/01/13 02:13:57;;;;;;;16.70;7.58;;;;;;;-0.84;100.00;99028.84;10897156;80;21029;-77
2021/01/13 02:29:23;;;;;;;33.50;13.28;;;;;;;-0.48;100.00;99033.58;10753539;82;21080;-77
2021/01/13 02:44:30;;;;;;;19.50;9.40;;;;;;;-0.51;100.00;99040.56;10886875;82;21140;-76
2021/01/13 02:59:38;;;;;;;15.98;9.55;;;;;;;-0.41;100.00;99055.45;10883079;82;21096;-76
2021/01/13 03:14:44;;;;;;;9.33;6.35;;;;;;;-0.67;100.00;99041.16;10887449;81;21203;-76
2021/01/13 03:29:51;;;;;;;28.42;8.08;;;;;;;-0.64;100.00;99053.03;10810578;82;21065;-76
2021/01/13 03:44:59;;;;;;;46.30;14.90;;;;;;;-0.55;100.00;99069.20;10894702;81;21684;-76
2021/01/13 04:00:10;;;;;;;16.27;6.95;;;;;;;-0.70;100.00;99073.53;10913134;81;21056;-77
2021/01/13 04:15:17;;;;;;;97.67;30.85;;;;;;;-0.70;100.00;99096.71;10818566;81;21107;-77
2021/01/13 04:30:27;;;;;;;36.15;23.65;;;;;;;-0.53;100.00;99101.69;10886408;80;21087;-77
2021/01/13 04:45:42;;;;;;;71.50;27.05;;;;;;;-0.70;100.00;99099.28;10876610;80;21005;-77
2021/01/13 05:01:46;;;;;;;8.88;5.20;;;;;;;-0.63;100.00;99112.18;10881003;80;21068;-77
2021/01/13 05:17:03;;;;;;;42.03;20.72;;;;;;;-0.60;100.00;99113.27;10629016;83;21093;-78
2021/01/13 05:32:09;;;;;;;59.90;27.77;;;;;;;-0.66;100.00;99120.10;10837026;80;21151;-76
2021/01/13 05:48:01;;;;;;;267.70;104.57;;;;;;;-0.76;100.00;99132.69;10885025;80;21193;-75
2021/01/13 06:03:10;;;;;;;153.70;60.80;;;;;;;-0.71;100.00;99150.46;10904054;82;21551;-79
2021/01/13 06:18:24;;;;;;;42.23;18.27;;;;;;;-0.75;100.00;99156.24;10885013;81;21161;-79
2021/01/13 06:33:35;;;;;;;45.63;18.92;;;;;;;-0.75;100.00;99171.70;10851660;81;21972;-78
2021/01/13 06:48:40;;;;;;;77.87;26.75;;;;;;;-0.68;100.00;99185.04;10849668;81;21373;-79
2021/01/13 07:03:45;;;;;;;44.90;17.98;;;;;;;-0.62;100.00;99191.13;10845061;81;21486;-79
2021/01/13 07:18:50;;;;;;;86.47;32.35;;;;;;;-0.53;100.00;99208.62;10836029;80;21103;-79
2021/01/13 07:33:59;;;;;;;24.75;12.10;;;;;;;-0.41;100.00;99226.39;10916747;80;21060;-78
2021/01/13 07:49:18;;;;;;;71.30;35.25;;;;;;;-0.34;100.00;99241.84;10894159;80;21068;-78
2021/01/13 08:05:10;;;;;;;64.40;24.00;;;;;;;-0.39;100.00;99243.86;10911323;80;21081;-78
2021/01/13 08:21:00;;;;;;;72.67;33.78;;;;;;;-0.29;100.00;99260.91;10419808;83;21044;-81
2021/01/13 08:36:11;;;;;;;82.10;36.48;;;;;;;-0.23;100.00;99268.27;10571158;82;21088;-81
2021/01/13 08:51:19;;;;;;;29.85;14.50;;;;;;;-0.40;100.00;99306.63;10595185;81;21072;-81
2021/01/13 09:06:29;;;;;;;35.85;16.70;;;;;;;-0.11;100.00;99304.56;10806857;80;21095;-81
2021/01/13 09:21:36;;;;;;;47.98;21.90;;;;;;;-0.06;100.00;99329.14;10831624;80;21447;-82
2021/01/13 09:36:59;;;;;;;76.25;24.40;;;;;;;0.06;100.00;99322.90;10842374;80;21049;-81
2021/01/13 09:52:13;;;;;;;103.40;39.13;;;;;;;0.69;100.00;99307.44;10850974;80;20989;-81
2021/01/13 10:07:22;;;;;;;78.95;32.75;;;;;;;1.33;100.00;99299.06;10872674;80;21088;-81
2021/01/13 10:39:43;;;;;;;49.18;22.02;;;;;;;1.52;100.00;99282.34;11261481;76;22257;-80
2021/01/13 10:54:52;;;;;;;37.07;16.03;;;;;;;1.35;100.00;99283.01;10638376;80;21659;-80
2021/01/13 11:09:59;;;;;;;106.25;32.75;;;;;;;1.86;100.00;99277.50;10880410;80;21182;-82
2021/01/13 11:25:07;;;;;;;59.00;25.03;;;;;;;2.37;100.00;99277.42;10661506;83;21159;-81
2021/01/13 11:40:37;;;;;;;48.68;19.10;;;;;;;2.16;100.00;99288.36;10743654;82;21162;-84
2021/01/13 11:55:42;;;;;;;37.73;16.02;;;;;;;1.58;100.00;99275.48;10611512;81;21202;-81
2021/01/13 12:10:51;;;;;;;31.90;13.62;;;;;;;1.51;100.00;99266.02;11012875;79;21172;-79
2021/01/13 12:26:20;;;;;;;99.17;47.73;;;;;;;1.42;100.00;99282.95;10639936;83;21184;-80
2021/01/13 12:41:27;;;;;;;30.45;14.28;;;;;;;1.45;100.00;99282.77;10660475;83;21120;-80
2021/01/13 12:56:32;;;;;;;155.10;60.17;;;;;;;1.64;100.00;99282.36;10653180;83;21171;-80
2021/01/13 13:11:38;;;;;;;48.87;22.90;;;;;;;1.78;100.00;99289.20;10689413;82;21987;-85
2021/01/13 13:26:42;;;;;;;32.88;17.23;;;;;;;1.47;100.00;99287.36;10777123;82;21151;-81
2021/01/13 13:41:46;;;;;;;53.55;28.27;;;;;;;1.09;100.00;99272.61;10745706;82;21636;-80
2021/01/13 13:56:55;;;;;;;60.92;31.30;;;;;;;0.99;100.00;99265.11;10662485;82;21178;-81
2021/01/13 14:12:00;;;;;;;45.90;25.05;;;;;;;0.98;100.00;99275.07;10764842;81;21181;-82
2021/01/13 14:27:07;;;;;;;61.77;27.77;;;;;;;0.97;100.00;99269.53;10694602;82;21167;-81
2021/01/13 14:42:15;;;;;;;79.97;48.77;;;;;;;0.91;100.00;99278.52;10748765;82;21202;-81
2021/01/13 14:57:19;;;;;;;;;;;;;;;0.79;100.00;99267.21;10699974;82;21198;-81
2021/01/13 15:12:24;;;;;;;58.45;26.07;;;;;;;0.79;100.00;99273.67;10685842;82;20224;-79
2021/01/13 15:27:32;;;;;;;78.17;34.30;;;;;;;0.87;100.00;99282.66;10748533;82;21162;-82
2021/01/13 15:42:40;;;;;;;61.42;26.00;;;;;;;0.92;100.00;99276.27;10710653;82;21190;-82
2021/01/13 15:57:50;;;;;;;49.53;24.10;;;;;;;0.91;100.00;99267.34;10681881;82;21181;-81
2021/01/13 16:12:57;;;;;;;80.77;31.70;;;;;;;0.81;100.00;99259.36;10710664;81;21178;-81
2021/01/13 16:28:03;;;;;;;76.15;31.15;;;;;;;0.78;100.00;99255.22;10711804;82;21199;-81
2021/01/13 16:43:16;;;;;;;58.10;28.52;;;;;;;0.85;100.00;99250.48;10473967;85;21147;-84
2021/01/13 16:58:22;;;;;;;57.35;24.35;;;;;;;0.85;100.00;99250.96;10352190;85;21139;-82
2021/01/13 17:13:30;;;;;;;62.60;32.80;;;;;;;0.80;100.00;99246.08;10352515;83;21188;-84
2021/01/13 17:28:35;;;;;;;80.92;34.88;;;;;;;0.73;100.00;99238.37;10295691;86;21143;-83
2021/01/13 17:43:40;;;;;;;48.85;24.92;;;;;;;0.69;100.00;99239.47;10284196;86;21139;-79
2021/01/13 17:58:45;;;;;;;52.98;29.60;;;;;;;0.55;100.00;99225.69;10354334;86;21292;-80
2021/01/13 18:13:59;;;;;;;53.55;23.02;;;;;;;0.46;100.00;99219.38;10387526;83;21243;-80
2021/01/13 18:29:05;;;;;;;66.43;30.07;;;;;;;0.47;100.00;99226.17;10380723;86;21202;-80
2021/01/13 18:44:09;;;;;;;57.78;25.62;;;;;;;0.57;100.00;99232.89;10340314;84;21132;-83
2021/01/13 18:59:13;;;;;;;79.20;35.17;;;;;;;0.57;100.00;99232.89;10242078;86;21206;-81
2021/01/13 19:14:18;;;;;;;67.15;28.87;;;;;;;0.46;100.00;99221.96;10570662;83;21210;-83
2021/01/13 19:29:24;;;;;;;105.27;48.97;;;;;;;0.35;100.00;99224.37;10620514;83;21609;-81
2021/01/13 19:44:29;;;;;;;85.87;31.75;;;;;;;0.48;100.00;99212.83;10624695;83;21219;-81
2021/01/13 19:59:33;;;;;;;86.92;36.17;;;;;;;0.56;100.00;99214.92;10323967;86;21605;-84
2021/01/13 20:14:38;;;;;;;64.90;29.20;;;;;;;0.53;100.00;99204.33;10635246;83;21176;-83
2021/01/13 20:29:43;;;;;;;67.60;30.62;;;;;;;0.57;100.00;99201.91;10634520;83;21631;-83
2021/01/13 20:44:48;;;;;;;81.67;32.58;;;;;;;0.46;100.00;99209.05;10631613;83;21235;-83
2021/01/13 20:59:55;;;;;;;69.42;35.95;;;;;;;0.41;100.00;99194.33;10619648;83;21199;-83
2021/01/13 21:14:59;;;;;;;126.62;42.90;;;;;;;0.41;100.00;99195.61;10637327;81;21203;-83
2021/01/13 21:30:07;;;;;;;156.67;61.50;;;;;;;0.47;100.00;99200.84;10276716;85;21692;-82
2021/01/13 21:45:16;;;;;;;85.38;40.10;;;;;;;0.51;100.00;99189.39;10461581;85;21656;-81
2021/01/13 22:00:22;;;;;;;64.27;31.30;;;;;;;0.64;100.00;99181.70;10450298;85;21166;-81
2021/01/13 22:15:28;;;;;;;151.60;50.45;;;;;;;0.59;100.00;99168.25;10387827;85;21643;-81
2021/01/13 22:30:32;;;;;;;175.60;52.33;;;;;;;0.66;100.00;99175.98;10141185;86;21227;-84
2021/01/13 22:45:37;;;;;;;50.28;20.08;;;;;;;0.66;100.00;99183.25;10703307;83;21231;-83
2021/01/13 23:00:41;;;;;;;93.82;37.80;;;;;;;0.61;100.00;99172.88;10703824;83;21135;-84
2021/01/13 23:15:45;;;;;;;110.70;50.33;;;;;;;0.61;100.00;99166.42;10683358;82;21159;-83
2021/01/13 23:30:50;;;;;;;61.63;27.45;;;;;;;0.48;100.00;99176.22;10437822;84;21147;-83
2021/01/13 23:45:54;;;;;;;259.83;74.15;;;;;;;0.41;100.00;99176.26;10460403;85;21199;-82
